Time;durP1;ratioP1;P1;durP2;ratioP2;P2;SDS_P1;SDS_P2;PMS_P1;PMS_P2;Temp;Humidity;BMP_temperature;BMP_pressure;BME280_temperature;BME280_humidity;BME280_pressure;Samples;Min_cycle;Max_cycle;Signal;HPM_P1;HPM_P2
2022/12/13 00:02:01;;;;;;;20.33;14.77;;;;;;;;;;5040517;28;20052;-64
2022/12/13 00:04:31;;;;;;;16.38;8.43;;;;;;;;;;5014470;28;20060;-63
2022/12/13 00:07:01;;;;;;;6.53;2.72;;;;;;;;;;5040874;28;20045;-66
2022/12/13 00:09:31;;;;;;;10.30;3.25;;;;;;;;;;5033923;28;20053;-64
2022/12/13 00:12:01;;;;;;;9.35;2.95;;;;;;;;;;5046475;28;20151;-65
2022/12/13 00:14:31;;;;;;;9.10;3.95;;;;;;;;;;5004794;28;20058;-64
2022/12/13 00:17:01;;;;;;;34.95;21.55;;;;;;;;;;5034096;28;20045;-64
2022/12/13 00:19:30;;;;;;;10.73;4.40;;;;;;;;;;5046068;28;20161;-63
2022/12/13 00:22:00;;;;;;;7.45;2.72;;;;;;;;;;5030860;28;20045;-63
2022/12/13 00:24:30;;;;;;;8.07;2.05;;;;;;;;;;5028126;28;20073;-66
2022/12/13 00:27:00;;;;;;;7.57;4.20;;;;;;;;;;4969510;28;20038;-64
2022/12/13 00:29:29;;;;;;;7.20;3.15;;;;;;;;;;4990744;28;20058;-63
2022/12/13 00:32:00;;;;;;;5.97;3.47;;;;;;;;;;4985565;28;20054;-63
2022/12/13 00:34:30;;;;;;;5.10;3.47;;;;;;;;;;5008269;28;20053;-63
2022/12/13 00:37:00;;;;;;;17.40;8.02;;;;;;;;;;5045711;28;20057;-64
2022/12/13 00:39:29;;;;;;;9.68;4.72;;;;;;;;;;5034943;28;20060;-64
2022/12/13 00:42:00;;;;;;;6.35;3.33;;;;;;;;;;5040339;28;20409;-63
2022/12/13 00:44:30;;;;;;;7.10;2.30;;;;;;;;;;5035180;28;20060;-63
2022/12/13 00:46:59;;;;;;;6.38;2.75;;;;;;;;;;5030953;28;20120;-63
2022/12/13 00:49:30;;;;;;;3.90;1.73;;;;;;;;;;5032384;28;20139;-62
2022/12/13 00:52:00;;;;;;;12.82;2.00;;;;;;;;;;5033322;28;20049;-63
2022/12/13 00:54:29;;;;;;;6.68;2.13;;;;;;;;;;4980308;28;20519;-63
2022/12/13 00:56:59;;;;;;;11.38;4.70;;;;;;;;;;5017604;28;20053;-63
2022/12/13 00:59:28;;;;;;;3.83;2.25;;;;;;;;;;5039286;28;20057;-65
2022/12/13 01:01:58;;;;;;;3.50;2.05;;;;;;;;;;5012267;28;20068;-65
2022/12/13 01:04:28;;;;;;;3.90;2.00;;;;;;;;;;5036012;28;20874;-64
2022/12/13 01:06:57;;;;;;;5.13;2.00;;;;;;;;;;5042178;28;20049;-65
2022/12/13 01:09:29;;;;;;;6.50;2.13;;;;;;;;;;5010244;28;20422;-63
2022/12/13 01:12:05;;;;;;;9.40;6.22;;;;;;;;;;4993910;28;20049;-65
2022/12/13 01:14:36;;;;;;;12.52;6.10;;;;;;;;;;5023261;28;20053;-64
2022/12/13 01:17:08;;;;;;;6.65;3.50;;;;;;;;;;5050837;28;20049;-64
2022/12/13 01:19:37;;;;;;;5.53;3.05;;;;;;;;;;5053599;28;20044;-65
2022/12/13 01:22:07;;;;;;;4.63;2.72;;;;;;;;;;5033241;28;20053;-63
2022/12/13 01:24:37;;;;;;;6.43;2.90;;;;;;;;;;5053266;28;20044;-63
2022/12/13 01:27:07;;;;;;;5.32;2.83;;;;;;;;;;5064064;28;20045;-63
2022/12/13 01:29:37;;;;;;;4.10;2.40;;;;;;;;;;5051966;28;20049;-63
2022/12/13 01:32:06;;;;;;;7.72;3.35;;;;;;;;;;5057337;28;20053;-62
2022/12/13 01:34:36;;;;;;;7.97;1.90;;;;;;;;;;5049950;28;20432;-63
2022/12/13 01:37:05;;;;;;;3.92;2.15;;;;;;;;;;5051270;28;20037;-63
2022/12/13 01:39:35;;;;;;;3.63;2.13;;;;;;;;;;5025448;28;20056;-62
2022/12/13 01:42:05;;;;;;;4.60;2.40;;;;;;;;;;5050594;28;20045;-63
2022/12/13 01:44:59;;;;;;;4.30;1.52;;;;;;;;;;5036816;28;20413;-63
2022/12/13 01:47:56;;;;;;;7.53;3.75;;;;;;;;;;5039333;28;20049;-65
2022/12/13 01:50:30;;;;;;;6.63;2.83;;;;;;;;;;5050455;28;20048;-64
2022/12/13 01:53:03;;;;;;;4.28;2.42;;;;;;;;;;5056142;28;20059;-63
2022/12/13 01:55:37;;;;;;;5.30;2.38;;;;;;;;;;5024982;28;20716;-63
2022/12/13 01:58:11;;;;;;;3.85;2.65;;;;;;;;;;5038821;28;20049;-63
2022/12/13 02:00:41;;;;;;;3.78;2.72;;;;;;;;;;5051518;28;20049;-63
2022/12/13 02:03:13;;;;;;;4.82;3.10;;;;;;;;;;5052557;28;20048;-63
2022/12/13 02:06:12;;;;;;;5.25;3.00;;;;;;;;;;5037140;28;20037;-63
2022/12/13 02:08:43;;;;;;;3.65;2.13;;;;;;;;;;5030299;28;20405;-64
2022/12/13 02:11:14;;;;;;;6.05;2.85;;;;;;;;;;5049963;28;20575;-63
2022/12/13 02:13:43;;;;;;;6.07;2.58;;;;;;;;;;5048374;28;20999;-63
2022/12/13 02:16:33;;;;;;;4.13;2.45;;;;;;;;;;5027819;28;20049;-63
2022/12/13 02:19:21;;;;;;;13.93;3.97;;;;;;;;;;5030833;28;20053;-63
2022/12/13 02:21:54;;;;;;;9.73;3.80;;;;;;;;;;4981623;28;20064;-63
2022/12/13 02:24:49;;;;;;;10.80;3.95;;;;;;;;;;5031034;28;20045;-63
2022/12/13 02:27:52;;;;;;;4.85;3.45;;;;;;;;;;5047029;28;20539;-63
2022/12/13 02:30:32;;;;;;;4.45;2.05;;;;;;;;;;5011458;28;20473;-64
2022/12/13 02:33:25;;;;;;;8.82;4.45;;;;;;;;;;5030431;28;20045;-63
2022/12/13 02:36:32;;;;;;;6.53;3.42;;;;;;;;;;5039870;28;20057;-65
2022/12/13 02:39:21;;;;;;;4.47;2.20;;;;;;;;;;4966409;28;20055;-63
2022/12/13 02:42:17;;;;;;;7.93;2.38;;;;;;;;;;4957304;28;20047;-63
2022/12/13 02:45:14;;;;;;;4.97;1.90;;;;;;;;;;4928590;28;20050;-64
2022/12/13 02:47:53;;;;;;;4.90;2.13;;;;;;;;;;4973968;28;20047;-64
2022/12/13 02:50:26;;;;;;;5.90;1.80;;;;;;;;;;4961766;28;20119;-66
2022/12/13 02:52:58;;;;;;;3.35;1.60;;;;;;;;;;4979253;28;20613;-59
2022/12/13 02:55:31;;;;;;;7.75;2.00;;;;;;;;;;4980258;28;20042;-59
2022/12/13 02:58:01;;;;;;;3.05;1.20;;;;;;;;;;4999380;28;20494;-59
2022/12/13 03:00:48;;;;;;;3.13;1.13;;;;;;;;;;4989128;28;20061;-60
2022/12/13 03:03:50;;;;;;;3.38;1.00;;;;;;;;;;4977934;28;20046;-61
2022/12/13 03:06:41;;;;;;;4.15;1.67;;;;;;;;;;4969145;28;20062;-62
2022/12/13 03:09:35;;;;;;;1.40;0.80;;;;;;;;;;4986271;28;20050;-63
2022/12/13 03:15:35;;;;;;;2.60;0.80;;;;;;;;;;4986795;28;20049;-65
2022/12/13 03:18:26;;;;;;;2.50;1.35;;;;;;;;;;5049851;28;20060;-65
2022/12/13 03:20:58;;;;;;;;;;;;;;;;;;5051876;28;20041;-64
2022/12/13 03:23:28;;;;;;;0.93;0.80;;;;;;;;;;5051320;28;19928;-63
2022/12/13 03:26:13;;;;;;;3.17;0.80;;;;;;;;;;5032271;28;20283;-63
2022/12/13 03:28:43;;;;;;;1.80;0.73;;;;;;;;;;5031319;28;20045;-65
2022/12/13 03:31:13;;;;;;;4.35;1.38;;;;;;;;;;5083295;28;20045;-64
2022/12/13 03:33:43;;;;;;;1.30;0.70;;;;;;;;;;5086064;28;20103;-64
2022/12/13 03:36:13;;;;;;;2.92;0.90;;;;;;;;;;5089239;28;20047;-64
2022/12/13 03:38:46;;;;;;;3.38;0.95;;;;;;;;;;5089567;28;20056;-64
2022/12/13 03:41:19;;;;;;;1.67;0.70;;;;;;;;;;5089478;28;20423;-63
2022/12/13 03:43:50;;;;;;;4.93;1.15;;;;;;;;;;5039899;28;20071;-63
2022/12/13 03:46:20;;;;;;;5.70;0.90;;;;;;;;;;5055760;28;20053;-64
2022/12/13 03:48:50;;;;;;;7.07;0.70;;;;;;;;;;5089426;28;20056;-64
2022/12/13 03:51:20;;;;;;;1.60;0.63;;;;;;;;;;5056506;28;20048;-65
2022/12/13 03:53:50;;;;;;;2.53;0.95;;;;;;;;;;5089254;28;20055;-65
2022/12/13 03:56:20;;;;;;;1.35;0.65;;;;;;;;;;5089481;28;20423;-64
2022/12/13 03:58:50;;;;;;;3.33;0.85;;;;;;;;;;5072510;28;20055;-65
2022/12/13 04:01:20;;;;;;;5.70;0.90;;;;;;;;;;5055706;28;20056;-65
2022/12/13 04:03:51;;;;;;;3.08;1.00;;;;;;;;;;5055593;28;20063;-64
2022/12/13 04:06:20;;;;;;;6.68;0.90;;;;;;;;;;5055738;28;20055;-64
2022/12/13 04:08:55;;;;;;;4.07;0.70;;;;;;;;;;5043258;28;20061;-64
2022/12/13 04:14:14;;;;;;;2.67;0.70;;;;;;;;;;5049635;28;20056;-64
2022/12/13 04:16:51;;;;;;;2.83;0.82;;;;;;;;;;5065008;28;20049;-64
2022/12/13 04:19:21;;;;;;;2.15;0.85;;;;;;;;;;5051373;28;20057;-64
2022/12/13 04:21:53;;;;;;;4.38;1.67;;;;;;;;;;5051494;28;21028;-64
2022/12/13 04:24:24;;;;;;;7.38;1.08;;;;;;;;;;5032165;28;20052;-64
2022/12/13 04:27:00;;;;;;;2.60;1.10;;;;;;;;;;5032374;28;20056;-64
2022/12/13 04:29:31;;;;;;;3.90;1.10;;;;;;;;;;5049312;28;20049;-64
2022/12/13 04:32:05;;;;;;;4.60;1.10;;;;;;;;;;5051075;28;20045;-64
2022/12/13 04:34:55;;;;;;;2.40;1.17;;;;;;;;;;5051104;28;20049;-64
2022/12/13 04:37:30;;;;;;;6.35;1.20;;;;;;;;;;5031984;28;20493;-64
2022/12/13 04:40:00;;;;;;;1.92;0.60;;;;;;;;;;5051130;28;20385;-64
2022/12/13 04:42:30;;;;;;;5.45;1.20;;;;;;;;;;5051174;28;20045;-64
2022/12/13 04:45:00;;;;;;;7.20;1.15;;;;;;;;;;5049741;28;20053;-64
2022/12/13 04:47:30;;;;;;;3.67;0.90;;;;;;;;;;5050975;28;20053;-64
2022/12/13 04:50:00;;;;;;;1.77;0.95;;;;;;;;;;5050866;28;20045;-64
2022/12/13 04:52:30;;;;;;;4.03;0.90;;;;;;;;;;5049321;28;20515;-64
2022/12/13 04:55:00;;;;;;;3.55;0.90;;;;;;;;;;5050782;28;20049;-64
2022/12/13 04:57:30;;;;;;;1.77;0.85;;;;;;;;;;5048255;28;20053;-64
2022/12/13 05:00:00;;;;;;;2.97;1.02;;;;;;;;;;5050659;28;20045;-64
2022/12/13 05:02:30;;;;;;;2.72;1.15;;;;;;;;;;5048272;28;20063;-64
2022/12/13 05:05:00;;;;;;;1.73;0.90;;;;;;;;;;5050691;28;20053;-64
2022/12/13 05:07:30;;;;;;;6.10;0.80;;;;;;;;;;5050731;28;20393;-64
2022/12/13 05:10:00;;;;;;;2.35;1.08;;;;;;;;;;5065039;28;20085;-64
2022/12/13 05:12:29;;;;;;;3.60;1.38;;;;;;;;;;5049502;28;20044;-64
2022/12/13 05:14:59;;;;;;;2.83;1.00;;;;;;;;;;5050960;28;20052;-65
2022/12/13 05:17:29;;;;;;;3.13;1.10;;;;;;;;;;5049649;28;20041;-64
2022/12/13 05:19:59;;;;;;;4.70;1.35;;;;;;;;;;5050595;28;20045;-64
2022/12/13 05:22:29;;;;;;;2.67;1.20;;;;;;;;;;5050319;28;20045;-64
2022/12/13 05:24:59;;;;;;;2.85;1.35;;;;;;;;;;5048103;28;20092;-64
2022/12/13 05:27:29;;;;;;;2.88;0.75;;;;;;;;;;5015662;28;20424;-64
2022/12/13 05:29:59;;;;;;;6.45;1.45;;;;;;;;;;5048086;28;20052;-63
2022/12/13 05:32:35;;;;;;;6.35;1.48;;;;;;;;;;5048116;28;20060;-64
2022/12/13 05:35:15;;;;;;;5.68;1.42;;;;;;;;;;5050300;28;20044;-64
2022/12/13 05:37:52;;;;;;;3.58;1.83;;;;;;;;;;5050495;28;20049;-64
2022/12/13 05:40:24;;;;;;;5.63;1.00;;;;;;;;;;5047780;28;20048;-64
2022/12/13 05:42:54;;;;;;;1.45;1.20;;;;;;;;;;5047662;28;20104;-64
2022/12/13 05:45:31;;;;;;;3.95;1.35;;;;;;;;;;5047660;28;20045;-64
2022/12/13 05:48:01;;;;;;;4.20;1.02;;;;;;;;;;5047212;28;20115;-64
2022/12/13 05:50:31;;;;;;;11.98;1.27;;;;;;;;;;5064342;28;20512;-64
2022/12/13 05:53:03;;;;;;;5.32;1.30;;;;;;;;;;5047318;28;20044;-64
2022/12/13 05:55:34;;;;;;;3.47;1.20;;;;;;;;;;4998411;28;20057;-63
2022/12/13 05:58:04;;;;;;;2.80;1.50;;;;;;;;;;5047553;28;20064;-64
2022/12/13 06:00:41;;;;;;;1.23;0.55;;;;;;;;;;5047599;28;20428;-64
2022/12/13 06:03:12;;;;;;;4.47;1.20;;;;;;;;;;5049311;28;20532;-64
2022/12/13 06:05:43;;;;;;;2.10;1.20;;;;;;;;;;5051187;28;20057;-64
2022/12/13 06:08:14;;;;;;;2.90;1.33;;;;;;;;;;5066574;28;20053;-64
2022/12/13 06:10:58;;;;;;;2.15;1.00;;;;;;;;;;5051099;28;20523;-65
2022/12/13 06:13:41;;;;;;;1.50;1.10;;;;;;;;;;5051036;28;20037;-64
2022/12/13 06:16:13;;;;;;;4.53;1.10;;;;;;;;;;5002218;28;20049;-65
2022/12/13 06:18:52;;;;;;;5.05;1.70;;;;;;;;;;5081482;28;20052;-64
2022/12/13 06:21:33;;;;;;;3.50;1.05;;;;;;;;;;5053504;28;20048;-64
2022/12/13 06:24:15;;;;;;;2.75;0.60;;;;;;;;;;5053707;28;20393;-64
2022/12/13 06:26:45;;;;;;;2.65;1.13;;;;;;;;;;5037363;28;20163;-64
2022/12/13 06:29:16;;;;;;;2.95;1.00;;;;;;;;;;5070847;28;20060;-64
2022/12/13 06:31:58;;;;;;;5.47;1.15;;;;;;;;;;5070804;28;20060;-64
2022/12/13 06:34:34;;;;;;;2.15;1.23;;;;;;;;;;5070641;28;20535;-64
2022/12/13 06:37:07;;;;;;;1.88;1.10;;;;;;;;;;5037160;28;20067;-64
2022/12/13 06:39:37;;;;;;;2.25;1.30;;;;;;;;;;5020777;28;20064;-63
2022/12/13 06:42:13;;;;;;;2.65;1.20;;;;;;;;;;5017342;28;20049;-63
2022/12/13 06:44:51;;;;;;;1.90;1.27;;;;;;;;;;5050472;28;20057;-64
2022/12/13 06:47:25;;;;;;;2.20;1.00;;;;;;;;;;5050626;28;20053;-63
2022/12/13 06:50:00;;;;;;;2.22;0.90;;;;;;;;;;5050440;28;20445;-64
2022/12/13 06:52:33;;;;;;;3.20;1.05;;;;;;;;;;5033505;28;20056;-64
2022/12/13 06:55:04;;;;;;;2.08;1.20;;;;;;;;;;5000886;28;20053;-63
2022/12/13 06:57:34;;;;;;;3.90;1.02;;;;;;;;;;5034465;28;20057;-63
2022/12/13 07:00:05;;;;;;;4.63;1.30;;;;;;;;;;5033513;28;20056;-63
2022/12/13 07:02:36;;;;;;;1.73;0.80;;;;;;;;;;5050170;28;20048;-63
2022/12/13 07:05:08;;;;;;;3.33;0.93;;;;;;;;;;5050119;28;20061;-63
2022/12/13 07:07:39;;;;;;;3.70;1.13;;;;;;;;;;5050267;28;20061;-63
2022/12/13 07:10:09;;;;;;;2.95;1.20;;;;;;;;;;5066415;28;20056;-64
2022/12/13 07:12:50;;;;;;;4.95;0.93;;;;;;;;;;5016566;28;20060;-64
2022/12/13 07:15:19;;;;;;;3.95;0.80;;;;;;;;;;5049246;28;20057;-64
2022/12/13 07:17:51;;;;;;;0.95;0.60;;;;;;;;;;5017081;28;20056;-64
2022/12/13 07:20:22;;;;;;;1.02;0.68;;;;;;;;;;5051808;28;20065;-63
2022/12/13 07:22:55;;;;;;;1.92;0.63;;;;;;;;;;5050199;28;20056;-63
2022/12/13 07:25:26;;;;;;;2.30;0.50;;;;;;;;;;5049856;28;20041;-63
2022/12/13 07:28:00;;;;;;;1.98;0.63;;;;;;;;;;5052509;28;20041;-63
2022/12/13 07:30:34;;;;;;;1.88;0.60;;;;;;;;;;5016854;28;20052;-64
2022/12/13 07:33:09;;;;;;;1.50;0.50;;;;;;;;;;5052202;28;20056;-64
2022/12/13 07:35:39;;;;;;;3.28;0.73;;;;;;;;;;5052375;28;20068;-64
2022/12/13 07:38:10;;;;;;;1.60;0.88;;;;;;;;;;5052299;28;20048;-64
2022/12/13 07:40:41;;;;;;;1.08;0.68;;;;;;;;;;5049902;28;20976;-63
2022/12/13 07:43:10;;;;;;;0.55;0.30;;;;;;;;;;5016409;28;20385;-63
2022/12/13 07:45:40;;;;;;;0.68;0.50;;;;;;;;;;5033457;28;20053;-64
2022/12/13 07:48:10;;;;;;;3.22;0.80;;;;;;;;;;5051930;28;20531;-63
2022/12/13 07:50:39;;;;;;;1.02;0.60;;;;;;;;;;5049442;28;20068;-63
2022/12/13 07:53:09;;;;;;;0.90;0.45;;;;;;;;;;5051559;28;20049;-63
2022/12/13 07:55:39;;;;;;;2.47;1.00;;;;;;;;;;5032382;28;20061;-63
2022/12/13 07:58:13;;;;;;;3.15;1.00;;;;;;;;;;5032630;28;20496;-63
2022/12/13 08:00:45;;;;;;;2.55;0.90;;;;;;;;;;5051508;28;20481;-63
2022/12/13 08:03:15;;;;;;;1.17;0.70;;;;;;;;;;5047816;28;20044;-63
2022/12/13 08:06:10;;;;;;;2.25;0.60;;;;;;;;;;5032644;28;20053;-63
2022/12/13 08:08:39;;;;;;;2.58;0.68;;;;;;;;;;5032675;28;20057;-63
2022/12/13 08:11:12;;;;;;;2.35;0.80;;;;;;;;;;5016307;28;20052;-63
2022/12/13 08:13:42;;;;;;;1.85;0.68;;;;;;;;;;5015665;28;20056;-63
2022/12/13 08:16:16;;;;;;;0.93;0.40;;;;;;;;;;5012464;28;20425;-63
2022/12/13 08:18:57;;;;;;;1.20;0.55;;;;;;;;;;5028890;28;20058;-62
2022/12/13 08:21:36;;;;;;;2.05;0.98;;;;;;;;;;5028959;28;20057;-63
2022/12/13 08:24:29;;;;;;;2.45;0.80;;;;;;;;;;5025161;28;20053;-63
2022/12/13 08:27:00;;;;;;;4.13;0.90;;;;;;;;;;5012071;28;20159;-63
2022/12/13 08:29:31;;;;;;;;;;;;;;;;;;5029243;28;20057;-63
2022/12/13 08:32:07;;;;;;;4.32;0.50;;;;;;;;;;4995851;28;19921;-62
2022/12/13 08:34:38;;;;;;;2.65;1.40;;;;;;;;;;5028054;28;20057;-63
2022/12/13 08:37:07;;;;;;;2.05;0.73;;;;;;;;;;4995910;28;20597;-63
2022/12/13 08:39:38;;;;;;;3.22;0.80;;;;;;;;;;4988887;28;20058;-63
2022/12/13 08:42:15;;;;;;;1.90;0.77;;;;;;;;;;4969561;28;20058;-63
2022/12/13 08:44:49;;;;;;;4.82;1.17;;;;;;;;;;4969486;28;20046;-63
2022/12/13 08:47:21;;;;;;;2.08;1.00;;;;;;;;;;4969728;28;20051;-62
2022/12/13 08:50:01;;;;;;;3.67;1.10;;;;;;;;;;4905586;28;20058;-62
2022/12/13 08:52:32;;;;;;;;;;;;;;;;;;4953558;28;20053;-62
2022/12/13 08:55:13;;;;;;;4.00;1.08;;;;;;;;;;5008039;28;19928;-62
2022/12/13 08:57:44;;;;;;;1.65;1.00;;;;;;;;;;4993039;28;20057;-62
2022/12/13 09:00:18;;;;;;;4.13;1.10;;;;;;;;;;4975953;28;20054;-62
2022/12/13 09:02:48;;;;;;;2.80;1.02;;;;;;;;;;5008526;28;20065;-62
2022/12/13 09:05:17;;;;;;;2.38;1.10;;;;;;;;;;4937652;28;20530;-62
2022/12/13 09:08:03;;;;;;;2.38;1.15;;;;;;;;;;4988579;28;20506;-62
2022/12/13 09:10:58;;;;;;;6.20;0.85;;;;;;;;;;4940623;28;20126;-62
2022/12/13 09:13:33;;;;;;;2.53;1.02;;;;;;;;;;4988662;28;20639;-62
2022/12/13 09:16:14;;;;;;;3.80;0.80;;;;;;;;;;4990809;28;20063;-62
2022/12/13 09:18:54;;;;;;;2.38;0.95;;;;;;;;;;5031026;28;20045;-62
2022/12/13 09:21:24;;;;;;;2.33;0.85;;;;;;;;;;5050548;28;20045;-62
2022/12/13 09:24:00;;;;;;;5.05;1.00;;;;;;;;;;5050228;28;20041;-62
2022/12/13 09:26:30;;;;;;;1.65;1.20;;;;;;;;;;5050158;28;20053;-62
2022/12/13 09:29:06;;;;;;;6.93;1.00;;;;;;;;;;5050476;28;20053;-62
2022/12/13 09:31:39;;;;;;;2.80;0.55;;;;;;;;;;5050644;28;20393;-62
2022/12/13 09:34:10;;;;;;;7.95;1.02;;;;;;;;;;5050163;28;20052;-62
2022/12/13 09:36:41;;;;;;;;;;;;;;;;;;5048350;28;20057;-62
2022/12/13 09:39:11;;;;;;;2.05;0.88;;;;;;;;;;5053936;28;20505;-62
2022/12/13 09:41:45;;;;;;;1.95;0.75;;;;;;;;;;5002101;28;20048;-62
2022/12/13 09:44:28;;;;;;;2.22;0.70;;;;;;;;;;5054110;28;20489;-62
2022/12/13 09:47:26;;;;;;;3.28;0.77;;;;;;;;;;5035315;28;20083;-63
2022/12/13 09:50:14;;;;;;;1.90;1.05;;;;;;;;;;5054154;28;20040;-62
2022/12/13 09:52:53;;;;;;;2.65;0.85;;;;;;;;;;5035041;28;20599;-62
2022/12/13 09:55:37;;;;;;;4.80;0.70;;;;;;;;;;5034734;28;20053;-63
2022/12/13 09:58:19;;;;;;;3.33;1.02;;;;;;;;;;5054377;28;20052;-62
2022/12/13 10:00:52;;;;;;;6.18;0.70;;;;;;;;;;5035027;28;21096;-62
2022/12/13 10:03:25;;;;;;;2.65;0.50;;;;;;;;;;5053944;28;20393;-63
2022/12/13 10:06:11;;;;;;;2.60;1.30;;;;;;;;;;5053693;28;20515;-62
2022/12/13 10:08:52;;;;;;;2.13;1.20;;;;;;;;;;5053622;28;20045;-63
2022/12/13 10:11:28;;;;;;;7.38;1.23;;;;;;;;;;5031312;28;20429;-63
2022/12/13 10:14:05;;;;;;;4.63;1.17;;;;;;;;;;5030705;28;20524;-63
2022/12/13 10:16:34;;;;;;;9.25;1.10;;;;;;;;;;4998269;28;20053;-62
2022/12/13 10:19:30;;;;;;;4.50;0.80;;;;;;;;;;5031014;28;20065;-63
2022/12/13 10:22:03;;;;;;;1.45;0.90;;;;;;;;;;4955693;28;20050;-63
2022/12/13 10:24:53;;;;;;;5.78;1.20;;;;;;;;;;4972159;28;20059;-63
2022/12/13 10:27:26;;;;;;;1.55;0.98;;;;;;;;;;4924133;28;20070;-64
2022/12/13 10:29:56;;;;;;;2.30;0.90;;;;;;;;;;4940162;28;20062;-63
2022/12/13 10:32:26;;;;;;;1.88;0.70;;;;;;;;;;4972130;28;20055;-63
2022/12/13 10:34:58;;;;;;;1.05;0.43;;;;;;;;;;4923156;28;20055;-62
2022/12/13 10:37:30;;;;;;;2.10;0.82;;;;;;;;;;4924220;28;20062;-63
2022/12/13 10:40:00;;;;;;;2.15;0.80;;;;;;;;;;4972205;28;20055;-63
2022/12/13 10:42:30;;;;;;;4.32;0.95;;;;;;;;;;4948741;28;20066;-63
2022/12/13 10:45:28;;;;;;;1.67;0.88;;;;;;;;;;4901498;29;20047;-62
2022/12/13 10:47:58;;;;;;;3.38;0.95;;;;;;;;;;4860021;29;20061;-63
2022/12/13 10:50:32;;;;;;;6.30;1.05;;;;;;;;;;4863200;29;20051;-62
2022/12/13 10:53:02;;;;;;;3.25;0.80;;;;;;;;;;4895163;29;20505;-63
2022/12/13 10:55:34;;;;;;;1.60;0.63;;;;;;;;;;4894986;29;20052;-62
2022/12/13 10:58:10;;;;;;;;;;;;;;;;;;4850908;29;20495;-62
2022/12/13 11:00:46;;;;;;;3.13;0.90;;;;;;;;;;4933438;29;19922;-62
2022/12/13 11:03:31;;;;;;;3.92;0.70;;;;;;;;;;4933046;29;20063;-62
2022/12/13 11:06:06;;;;;;;2.72;1.58;;;;;;;;;;4932948;29;20093;-62
2022/12/13 11:08:36;;;;;;;1.58;1.08;;;;;;;;;;4933049;29;20059;-62
2022/12/13 11:11:08;;;;;;;3.80;0.68;;;;;;;;;;4971112;28;20054;-62
2022/12/13 11:13:37;;;;;;;;;;;;;;;;;;4940186;28;20086;-62
2022/12/13 11:16:31;;;;;;;6.55;0.93;;;;;;;;;;4971418;28;19922;-62
2022/12/13 11:19:23;;;;;;;1.33;0.88;;;;;;;;;;4972391;28;20055;-63
2022/12/13 11:21:54;;;;;;;4.72;1.25;;;;;;;;;;4990482;28;20050;-62
2022/12/13 11:24:29;;;;;;;2.05;0.63;;;;;;;;;;4958459;28;20052;-62
2022/12/13 11:27:27;;;;;;;1.55;0.75;;;;;;;;;;5000564;28;20045;-62
2022/12/13 11:30:12;;;;;;;1.88;0.73;;;;;;;;;;4973786;28;20100;-62
2022/12/13 11:33:09;;;;;;;1.33;0.60;;;;;;;;;;4973686;28;20046;-62
2022/12/13 11:35:53;;;;;;;5.18;0.93;;;;;;;;;;4990006;28;20076;-62
2022/12/13 11:39:00;;;;;;;2.00;0.93;;;;;;;;;;4990220;28;20050;-62
2022/12/13 11:41:57;;;;;;;5.07;0.70;;;;;;;;;;4990105;28;20070;-62
2022/12/13 11:44:37;;;;;;;2.55;0.80;;;;;;;;;;4930083;29;20062;-63
2022/12/13 11:47:25;;;;;;;2.53;0.40;;;;;;;;;;4950572;29;20388;-62
2022/12/13 11:49:58;;;;;;;3.65;1.58;;;;;;;;;;4907486;29;20059;-62
2022/12/13 11:52:30;;;;;;;2.60;0.77;;;;;;;;;;4866256;29;20611;-63
2022/12/13 11:55:14;;;;;;;1.63;0.88;;;;;;;;;;4902300;29;20052;-62
2022/12/13 11:57:46;;;;;;;2.45;0.98;;;;;;;;;;4894430;29;20052;-62
2022/12/13 12:00:50;;;;;;;4.47;0.70;;;;;;;;;;4893433;29;20445;-63
2022/12/13 12:03:35;;;;;;;2.35;0.88;;;;;;;;;;4918872;29;20095;-63
2022/12/13 12:06:20;;;;;;;4.07;1.15;;;;;;;;;;4917997;29;20054;-63
2022/12/13 12:09:05;;;;;;;1.67;0.95;;;;;;;;;;4923516;29;20054;-63
2022/12/13 12:11:47;;;;;;;1.30;0.70;;;;;;;;;;4943178;29;20060;-63
2022/12/13 12:14:24;;;;;;;1.85;1.27;;;;;;;;;;4939439;29;20063;-64
2022/12/13 12:16:56;;;;;;;2.38;0.90;;;;;;;;;;4918596;29;20507;-62
2022/12/13 12:19:35;;;;;;;1.88;1.00;;;;;;;;;;4958312;28;20054;-63
2022/12/13 12:22:26;;;;;;;1.98;0.65;;;;;;;;;;4987386;28;20414;-63
2022/12/13 12:25:03;;;;;;;2.10;0.88;;;;;;;;;;5008440;28;20058;-62
2022/12/13 12:27:51;;;;;;;1.63;0.77;;;;;;;;;;4966280;28;20797;-63
2022/12/13 12:30:43;;;;;;;5.60;1.63;;;;;;;;;;5005487;28;20087;-65
2022/12/13 12:33:50;;;;;;;3.88;0.80;;;;;;;;;;4932636;29;20047;-63
2022/12/13 12:36:36;;;;;;;1.67;0.70;;;;;;;;;;4949925;29;20039;-63
2022/12/13 12:39:34;;;;;;;2.80;1.00;;;;;;;;;;4949764;29;21004;-63
2022/12/13 12:42:38;;;;;;;1.20;0.90;;;;;;;;;;4949750;29;20134;-64
2022/12/13 12:45:45;;;;;;;2.17;0.40;;;;;;;;;;4901362;29;20515;-64
2022/12/13 12:48:45;;;;;;;4.00;0.80;;;;;;;;;;4910901;29;21193;-64
2022/12/13 12:51:49;;;;;;;7.05;0.60;;;;;;;;;;4911942;29;20068;-63
2022/12/13 12:54:39;;;;;;;3.50;0.80;;;;;;;;;;4910908;29;20064;-63
2022/12/13 12:57:47;;;;;;;3.47;0.98;;;;;;;;;;4900158;29;20544;-63
2022/12/13 13:00:21;;;;;;;1.98;0.50;;;;;;;;;;4897254;29;20057;-63
2022/12/13 13:02:54;;;;;;;1.70;0.38;;;;;;;;;;4898465;29;20532;-63
2022/12/13 13:05:46;;;;;;;4.60;0.70;;;;;;;;;;4900540;29;20060;-64
2022/12/13 13:08:28;;;;;;;4.78;1.23;;;;;;;;;;4895039;29;20180;-63
2022/12/13 13:10:59;;;;;;;1.00;0.55;;;;;;;;;;4950392;28;20077;-63
2022/12/13 13:13:59;;;;;;;2.08;0.80;;;;;;;;;;4935522;28;20039;-63
2022/12/13 13:16:37;;;;;;;3.25;0.80;;;;;;;;;;4916463;28;20046;-63
2022/12/13 13:19:16;;;;;;;1.80;0.55;;;;;;;;;;4936197;28;20065;-63
2022/12/13 13:21:56;;;;;;;2.03;0.60;;;;;;;;;;4995124;28;20056;-63
2022/12/13 13:24:32;;;;;;;4.10;0.95;;;;;;;;;;5007715;28;20057;-63
2022/12/13 13:27:10;;;;;;;1.27;0.90;;;;;;;;;;4984087;28;20532;-63
2022/12/13 13:29:41;;;;;;;2.38;0.70;;;;;;;;;;5023971;28;20049;-63
2022/12/13 13:32:15;;;;;;;2.10;0.65;;;;;;;;;;5011210;28;20062;-63
2022/12/13 13:35:27;;;;;;;0.70;0.60;;;;;;;;;;5007950;28;20065;-63
2022/12/13 13:38:00;;;;;;;2.03;0.40;;;;;;;;;;5026681;28;20060;-63
2022/12/13 13:40:37;;;;;;;0.75;0.50;;;;;;;;;;4995140;28;20049;-63
2022/12/13 13:43:11;;;;;;;1.92;0.73;;;;;;;;;;5030192;28;20076;-64
2022/12/13 13:45:52;;;;;;;2.10;0.60;;;;;;;;;;5029645;28;20042;-63
2022/12/13 13:48:47;;;;;;;4.82;1.00;;;;;;;;;;5027427;28;20049;-63
2022/12/13 13:51:41;;;;;;;1.95;1.55;;;;;;;;;;5039212;28;20045;-63
2022/12/13 13:55:19;;;;;;;5.03;1.40;;;;;;;;;;5046101;28;20044;-63
2022/12/13 13:58:07;;;;;;;1.88;1.60;;;;;;;;;;5024181;28;20599;-64
2022/12/13 14:01:12;;;;;;;0.90;0.52;;;;;;;;;;4990827;28;20057;-64
2022/12/13 14:04:19;;;;;;;0.75;0.52;;;;;;;;;;5025468;28;20037;-64
2022/12/13 14:07:18;;;;;;;1.98;0.70;;;;;;;;;;5007822;28;20054;-63
2022/12/13 14:09:59;;;;;;;1.00;0.35;;;;;;;;;;4977236;28;20066;-64
2022/12/13 14:12:53;;;;;;;2.17;0.73;;;;;;;;;;4975002;28;20054;-64
2022/12/13 14:16:02;;;;;;;1.75;0.68;;;;;;;;;;5007664;28;20050;-64
2022/12/13 14:18:46;;;;;;;1.52;0.73;;;;;;;;;;5007557;28;20065;-64
2022/12/13 14:21:28;;;;;;;0.75;0.60;;;;;;;;;;5007445;28;20046;-64
2022/12/13 14:24:40;;;;;;;2.65;0.60;;;;;;;;;;5008882;28;20050;-64
2022/12/13 14:27:16;;;;;;;1.25;0.50;;;;;;;;;;4933671;29;20067;-64
2022/12/13 14:29:49;;;;;;;0.63;0.43;;;;;;;;;;4949400;29;20059;-65
2022/12/13 14:32:29;;;;;;;0.85;0.63;;;;;;;;;;4963473;28;20050;-64
2022/12/13 14:34:59;;;;;;;0.38;0.35;;;;;;;;;;4971477;28;20078;-63
2022/12/13 14:38:04;;;;;;;1.88;0.32;;;;;;;;;;4971724;28;20471;-64
2022/12/13 14:40:37;;;;;;;0.98;0.50;;;;;;;;;;4940815;28;20872;-64
2022/12/13 14:43:25;;;;;;;2.60;0.60;;;;;;;;;;4987696;28;20053;-63
2022/12/13 14:45:58;;;;;;;1.50;0.40;;;;;;;;;;4968226;28;20047;-64
2022/12/13 14:48:43;;;;;;;1.92;0.43;;;;;;;;;;4969417;28;20063;-64
2022/12/13 14:51:33;;;;;;;2.30;0.40;;;;;;;;;;4962845;28;20070;-63
2022/12/13 14:54:05;;;;;;;2.42;0.50;;;;;;;;;;4971491;28;20093;-63
2022/12/13 14:56:54;;;;;;;2.30;0.60;;;;;;;;;;4970940;28;20050;-64
2022/12/13 14:59:24;;;;;;;3.15;0.57;;;;;;;;;;4971008;28;20058;-63
2022/12/13 15:02:01;;;;;;;1.75;0.40;;;;;;;;;;4968606;28;20058;-65
2022/12/13 15:04:34;;;;;;;1.38;0.20;;;;;;;;;;5013623;28;20421;-64
2022/12/13 15:07:07;;;;;;;2.40;0.73;;;;;;;;;;5044427;28;20045;-63
2022/12/13 15:09:40;;;;;;;3.00;0.40;;;;;;;;;;5032163;28;20054;-63
2022/12/13 15:12:14;;;;;;;3.58;0.60;;;;;;;;;;5013035;28;20060;-63
2022/12/13 15:15:01;;;;;;;0.95;0.43;;;;;;;;;;4990090;28;20050;-63
2022/12/13 15:17:37;;;;;;;3.88;0.63;;;;;;;;;;4974406;28;20062;-62
2022/12/13 15:20:32;;;;;;;1.67;0.32;;;;;;;;;;4970917;28;20458;-63
2022/12/13 15:23:17;;;;;;;1.23;0.30;;;;;;;;;;4961168;28;20434;-62
2022/12/13 15:25:51;;;;;;;;;;;;;;;;;;4990240;28;20057;-63
2022/12/13 15:28:26;;;;;;;2.22;0.40;;;;;;;;;;4958082;28;19933;-62
2022/12/13 15:30:59;;;;;;;2.17;0.75;;;;;;;;;;4990138;28;20089;-63
2022/12/13 15:33:31;;;;;;;5.13;0.70;;;;;;;;;;4964205;28;20082;-63
2022/12/13 15:36:14;;;;;;;1.65;0.77;;;;;;;;;;5008903;28;20058;-63
2022/12/13 15:38:59;;;;;;;4.07;0.57;;;;;;;;;;5005727;28;20050;-62
2022/12/13 15:41:35;;;;;;;0.73;0.73;;;;;;;;;;4998932;28;20050;-62
2022/12/13 15:44:17;;;;;;;1.40;0.50;;;;;;;;;;5009454;28;20058;-63
2022/12/13 15:46:49;;;;;;;2.85;1.10;;;;;;;;;;4955231;28;20057;-62
2022/12/13 15:49:25;;;;;;;0.25;0.25;;;;;;;;;;4979429;28;20046;-62
2022/12/13 15:51:57;;;;;;;2.65;0.30;;;;;;;;;;4944832;28;20778;-62
2022/12/13 15:54:28;;;;;;;1.75;0.50;;;;;;;;;;4989610;28;20055;-61